sensor_id;sensor_type;location;lat;lon;timestamp;P1;durP1;ratioP1;P2;durP2;ratioP2
18702;SDS011;9481;48.796;9.210;2022-10-16T00:01:17;1.40;;;1.20;;
18702;SDS011;9481;48.796;9.210;2022-10-16T00:03:46;3.73;;;1.37;;
18702;SDS011;9481;48.796;9.210;2022-10-16T00:06:14;1.57;;;1.30;;
18702;SDS011;9481;48.796;9.210;2022-10-16T00:08:42;1.67;;;1.30;;
18702;SDS011;9481;48.796;9.210;2022-10-16T00:11:09;1.87;;;1.20;;
18702;SDS011;9481;48.796;9.210;2022-10-16T00:13:47;2.93;;;1.10;;
18702;SDS011;9481;48.796;9.210;2022-10-16T00:16:17;2.87;;;1.13;;
18702;SDS011;9481;48.796;9.210;2022-10-16T00:18:43;1.73;;;1.10;;
18702;SDS011;9481;48.796;9.210;2022-10-16T00:21:10;2.40;;;1.50;;
18702;SDS011;9481;48.796;9.210;2022-10-16T00:23:40;2.60;;;1.20;;
18702;SDS011;9481;48.796;9.210;2022-10-16T00:26:08;1.83;;;1.30;;
18702;SDS011;9481;48.796;9.210;2022-10-16T00:28:37;1.67;;;1.30;;
18702;SDS011;9481;48.796;9.210;2022-10-16T00:31:03;2.90;;;1.40;;
18702;SDS011;9481;48.796;9.210;2022-10-16T00:33:31;1.40;;;1.10;;
18702;SDS011;9481;48.796;9.210;2022-10-16T00:35:58;1.87;;;1.50;;
18702;SDS011;9481;48.796;9.210;2022-10-16T00:38:26;1.77;;;1.23;;
18702;SDS011;9481;48.796;9.210;2022-10-16T00:40:51;2.20;;;1.60;;
18702;SDS011;9481;48.796;9.210;2022-10-16T00:46:13;2.93;;;1.50;;
18702;SDS011;9481;48.796;9.210;2022-10-16T00:48:47;1.50;;;1.30;;
18702;SDS011;9481;48.796;9.210;2022-10-16T00:51:31;1.53;;;1.43;;
18702;SDS011;9481;48.796;9.210;2022-10-16T00:54:17;2.07;;;1.50;;
18702;SDS011;9481;48.796;9.210;2022-10-16T00:56:56;2.10;;;1.50;;
18702;SDS011;9481;48.796;9.210;2022-10-16T00:59:33;3.53;;;1.47;;
18702;SDS011;9481;48.796;9.210;2022-10-16T01:02:03;1.47;;;1.37;;
18702;SDS011;9481;48.796;9.210;2022-10-16T01:04:35;2.90;;;1.63;;
18702;SDS011;9481;48.796;9.210;2022-10-16T01:10:30;1.90;;;1.40;;
18702;SDS011;9481;48.796;9.210;2022-10-16T01:13:06;3.33;;;1.83;;
18702;SDS011;9481;48.796;9.210;2022-10-16T01:15:44;3.73;;;1.43;;
18702;SDS011;9481;48.796;9.210;2022-10-16T01:21:10;5.50;;;1.60;;
18702;SDS011;9481;48.796;9.210;2022-10-16T01:32:19;6.40;;;1.60;;
18702;SDS011;9481;48.796;9.210;2022-10-16T01:34:59;3.87;;;1.30;;
18702;SDS011;9481;48.796;9.210;2022-10-16T01:40:22;1.57;;;1.40;;
18702;SDS011;9481;48.796;9.210;2022-10-16T01:43:08;2.03;;;1.60;;
18702;SDS011;9481;48.796;9.210;2022-10-16T01:45:39;2.40;;;1.43;;
18702;SDS011;9481;48.796;9.210;2022-10-16T01:48:09;2.73;;;1.77;;
18702;SDS011;9481;48.796;9.210;2022-10-16T01:50:41;3.00;;;1.90;;
18702;SDS011;9481;48.796;9.210;2022-10-16T01:53:22;1.97;;;1.60;;
18702;SDS011;9481;48.796;9.210;2022-10-16T01:55:49;1.73;;;1.60;;
18702;SDS011;9481;48.796;9.210;2022-10-16T01:58:19;2.97;;;1.60;;
18702;SDS011;9481;48.796;9.210;2022-10-16T02:00:46;2.80;;;1.83;;
18702;SDS011;9481;48.796;9.210;2022-10-16T02:03:14;2.27;;;1.70;;
18702;SDS011;9481;48.796;9.210;2022-10-16T02:05:51;2.83;;;1.37;;
18702;SDS011;9481;48.796;9.210;2022-10-16T02:08:22;2.47;;;1.60;;
18702;SDS011;9481;48.796;9.210;2022-10-16T02:10:50;2.73;;;1.67;;
18702;SDS011;9481;48.796;9.210;2022-10-16T02:13:18;1.63;;;1.50;;
18702;SDS011;9481;48.796;9.210;2022-10-16T02:15:51;2.77;;;2.03;;
18702;SDS011;9481;48.796;9.210;2022-10-16T02:18:17;2.57;;;1.43;;
18702;SDS011;9481;48.796;9.210;2022-10-16T02:20:48;1.83;;;1.50;;
18702;SDS011;9481;48.796;9.210;2022-10-16T02:23:49;4.10;;;1.50;;
18702;SDS011;9481;48.796;9.210;2022-10-16T02:26:27;1.87;;;1.37;;
18702;SDS011;9481;48.796;9.210;2022-10-16T02:29:10;2.07;;;1.53;;
18702;SDS011;9481;48.796;9.210;2022-10-16T02:31:42;1.90;;;1.63;;
18702;SDS011;9481;48.796;9.210;2022-10-16T02:34:15;2.07;;;1.70;;
18702;SDS011;9481;48.796;9.210;2022-10-16T02:36:44;2.20;;;1.70;;
18702;SDS011;9481;48.796;9.210;2022-10-16T02:39:13;4.77;;;1.60;;
18702;SDS011;9481;48.796;9.210;2022-10-16T02:41:41;1.87;;;1.53;;
18702;SDS011;9481;48.796;9.210;2022-10-16T02:44:07;2.90;;;1.63;;
18702;SDS011;9481;48.796;9.210;2022-10-16T02:46:33;1.77;;;1.37;;
18702;SDS011;9481;48.796;9.210;2022-10-16T02:48:58;6.27;;;1.83;;
18702;SDS011;9481;48.796;9.210;2022-10-16T02:51:24;3.03;;;1.50;;
18702;SDS011;9481;48.796;9.210;2022-10-16T02:53:50;1.53;;;1.37;;
18702;SDS011;9481;48.796;9.210;2022-10-16T02:56:15;3.97;;;1.53;;
18702;SDS011;9481;48.796;9.210;2022-10-16T02:58:41;2.50;;;1.40;;
18702;SDS011;9481;48.796;9.210;2022-10-16T03:01:07;2.23;;;1.47;;
18702;SDS011;9481;48.796;9.210;2022-10-16T03:03:32;1.47;;;1.37;;
18702;SDS011;9481;48.796;9.210;2022-10-16T03:05:58;3.13;;;1.60;;
18702;SDS011;9481;48.796;9.210;2022-10-16T03:08:24;3.97;;;1.80;;
18702;SDS011;9481;48.796;9.210;2022-10-16T03:10:50;2.70;;;1.70;;
18702;SDS011;9481;48.796;9.210;2022-10-16T03:13:16;1.93;;;1.70;;
18702;SDS011;9481;48.796;9.210;2022-10-16T03:15:43;1.77;;;1.57;;
18702;SDS011;9481;48.796;9.210;2022-10-16T03:18:08;1.60;;;1.50;;
18702;SDS011;9481;48.796;9.210;2022-10-16T03:20:34;1.60;;;1.37;;
18702;SDS011;9481;48.796;9.210;2022-10-16T03:23:00;1.60;;;1.20;;
18702;SDS011;9481;48.796;9.210;2022-10-16T03:25:27;2.07;;;1.50;;
18702;SDS011;9481;48.796;9.210;2022-10-16T03:27:53;2.60;;;1.30;;
18702;SDS011;9481;48.796;9.210;2022-10-16T03:30:18;3.37;;;1.47;;
18702;SDS011;9481;48.796;9.210;2022-10-16T03:32:44;2.83;;;1.20;;
18702;SDS011;9481;48.796;9.210;2022-10-16T03:35:10;1.40;;;1.30;;
18702;SDS011;9481;48.796;9.210;2022-10-16T03:37:36;3.30;;;1.40;;
18702;SDS011;9481;48.796;9.210;2022-10-16T03:40:02;2.37;;;1.60;;
18702;SDS011;9481;48.796;9.210;2022-10-16T03:42:29;1.93;;;1.27;;
18702;SDS011;9481;48.796;9.210;2022-10-16T03:44:54;1.83;;;1.37;;
18702;SDS011;9481;48.796;9.210;2022-10-16T03:47:20;2.00;;;1.30;;
18702;SDS011;9481;48.796;9.210;2022-10-16T03:49:48;2.73;;;1.60;;
18702;SDS011;9481;48.796;9.210;2022-10-16T03:52:15;1.73;;;1.53;;
18702;SDS011;9481;48.796;9.210;2022-10-16T03:54:41;3.70;;;2.00;;
18702;SDS011;9481;48.796;9.210;2022-10-16T03:57:07;4.87;;;2.53;;
18702;SDS011;9481;48.796;9.210;2022-10-16T03:59:32;3.53;;;2.13;;
18702;SDS011;9481;48.796;9.210;2022-10-16T04:01:58;2.83;;;2.40;;
18702;SDS011;9481;48.796;9.210;2022-10-16T04:04:24;5.37;;;2.50;;
18702;SDS011;9481;48.796;9.210;2022-10-16T04:06:50;5.57;;;2.20;;
18702;SDS011;9481;48.796;9.210;2022-10-16T04:09:16;3.20;;;2.17;;
18702;SDS011;9481;48.796;9.210;2022-10-16T04:11:41;3.03;;;2.17;;
18702;SDS011;9481;48.796;9.210;2022-10-16T04:14:07;3.10;;;2.00;;
18702;SDS011;9481;48.796;9.210;2022-10-16T04:16:33;6.10;;;1.97;;
18702;SDS011;9481;48.796;9.210;2022-10-16T04:18:59;2.30;;;1.90;;
18702;SDS011;9481;48.796;9.210;2022-10-16T04:21:25;2.40;;;1.70;;
18702;SDS011;9481;48.796;9.210;2022-10-16T04:23:51;2.33;;;1.40;;
18702;SDS011;9481;48.796;9.210;2022-10-16T04:26:17;2.57;;;1.30;;
18702;SDS011;9481;48.796;9.210;2022-10-16T04:28:43;1.23;;;1.10;;
18702;SDS011;9481;48.796;9.210;2022-10-16T04:31:08;3.17;;;1.43;;
18702;SDS011;9481;48.796;9.210;2022-10-16T04:33:34;1.70;;;1.30;;
18702;SDS011;9481;48.796;9.210;2022-10-16T04:36:00;4.70;;;1.37;;
18702;SDS011;9481;48.796;9.210;2022-10-16T04:38:28;1.50;;;1.10;;
18702;SDS011;9481;48.796;9.210;2022-10-16T04:40:54;1.67;;;1.20;;
18702;SDS011;9481;48.796;9.210;2022-10-16T04:43:20;2.63;;;1.10;;
18702;SDS011;9481;48.796;9.210;2022-10-16T04:45:46;2.90;;;1.17;;
18702;SDS011;9481;48.796;9.210;2022-10-16T04:48:12;3.57;;;1.20;;
18702;SDS011;9481;48.796;9.210;2022-10-16T04:50:38;4.57;;;1.33;;
18702;SDS011;9481;48.796;9.210;2022-10-16T04:53:03;2.90;;;0.90;;
18702;SDS011;9481;48.796;9.210;2022-10-16T04:55:30;2.13;;;1.40;;
18702;SDS011;9481;48.796;9.210;2022-10-16T04:57:56;3.67;;;1.30;;
18702;SDS011;9481;48.796;9.210;2022-10-16T05:00:21;2.37;;;1.23;;
18702;SDS011;9481;48.796;9.210;2022-10-16T05:02:49;2.57;;;1.43;;
18702;SDS011;9481;48.796;9.210;2022-10-16T05:05:15;2.03;;;1.40;;
18702;SDS011;9481;48.796;9.210;2022-10-16T05:07:41;3.17;;;1.30;;
18702;SDS011;9481;48.796;9.210;2022-10-16T05:10:07;2.00;;;1.20;;
18702;SDS011;9481;48.796;9.210;2022-10-16T05:12:33;1.40;;;1.30;;
18702;SDS011;9481;48.796;9.210;2022-10-16T05:14:58;1.40;;;1.30;;
18702;SDS011;9481;48.796;9.210;2022-10-16T05:17:25;4.20;;;1.57;;
18702;SDS011;9481;48.796;9.210;2022-10-16T05:19:51;1.53;;;1.30;;
18702;SDS011;9481;48.796;9.210;2022-10-16T05:22:17;1.50;;;1.20;;
18702;SDS011;9481;48.796;9.210;2022-10-16T05:24:43;2.63;;;1.70;;
18702;SDS011;9481;48.796;9.210;2022-10-16T05:27:09;2.60;;;1.20;;
18702;SDS011;9481;48.796;9.210;2022-10-16T05:29:36;1.37;;;1.20;;
18702;SDS011;9481;48.796;9.210;2022-10-16T05:32:02;1.57;;;1.10;;
18702;SDS011;9481;48.796;9.210;2022-10-16T05:34:27;6.07;;;1.40;;
18702;SDS011;9481;48.796;9.210;2022-10-16T05:36:53;1.70;;;1.10;;
18702;SDS011;9481;48.796;9.210;2022-10-16T05:39:19;1.80;;;1.20;;
18702;SDS011;9481;48.796;9.210;2022-10-16T05:41:44;3.83;;;1.20;;
18702;SDS011;9481;48.796;9.210;2022-10-16T05:44:10;2.90;;;1.20;;
18702;SDS011;9481;48.796;9.210;2022-10-16T05:46:36;1.97;;;1.20;;
18702;SDS011;9481;48.796;9.210;2022-10-16T05:49:02;2.93;;;1.27;;
18702;SDS011;9481;48.796;9.210;2022-10-16T05:51:28;1.60;;;1.13;;
18702;SDS011;9481;48.796;9.210;2022-10-16T05:53:53;2.40;;;1.43;;
18702;SDS011;9481;48.796;9.210;2022-10-16T05:56:19;3.17;;;1.23;;
18702;SDS011;9481;48.796;9.210;2022-10-16T05:58:45;1.20;;;1.10;;
18702;SDS011;9481;48.796;9.210;2022-10-16T06:01:12;2.57;;;1.40;;
18702;SDS011;9481;48.796;9.210;2022-10-16T06:03:41;4.77;;;1.83;;
18702;SDS011;9481;48.796;9.210;2022-10-16T06:06:14;1.50;;;1.30;;
18702;SDS011;9481;48.796;9.210;2022-10-16T06:08:43;2.00;;;1.37;;
18702;SDS011;9481;48.796;9.210;2022-10-16T06:11:11;2.23;;;1.10;;
18702;SDS011;9481;48.796;9.210;2022-10-16T06:13:43;1.50;;;1.03;;
18702;SDS011;9481;48.796;9.210;2022-10-16T06:16:11;1.70;;;1.07;;
18702;SDS011;9481;48.796;9.210;2022-10-16T06:18:38;1.90;;;1.20;;
18702;SDS011;9481;48.796;9.210;2022-10-16T06:21:11;1.83;;;1.20;;
18702;SDS011;9481;48.796;9.210;2022-10-16T06:23:41;2.30;;;1.37;;
18702;SDS011;9481;48.796;9.210;2022-10-16T06:26:08;1.60;;;1.43;;
18702;SDS011;9481;48.796;9.210;2022-10-16T06:28:36;3.77;;;1.33;;
18702;SDS011;9481;48.796;9.210;2022-10-16T06:31:03;2.87;;;1.40;;
18702;SDS011;9481;48.796;9.210;2022-10-16T06:33:31;3.07;;;1.60;;
18702;SDS011;9481;48.796;9.210;2022-10-16T06:36:04;2.77;;;1.60;;
18702;SDS011;9481;48.796;9.210;2022-10-16T06:38:37;3.33;;;1.90;;
18702;SDS011;9481;48.796;9.210;2022-10-16T06:41:04;1.97;;;1.50;;
18702;SDS011;9481;48.796;9.210;2022-10-16T06:43:32;2.33;;;1.70;;
18702;SDS011;9481;48.796;9.210;2022-10-16T06:46:00;2.60;;;1.50;;
18702;SDS011;9481;48.796;9.210;2022-10-16T06:48:27;2.30;;;1.60;;
18702;SDS011;9481;48.796;9.210;2022-10-16T06:50:57;2.17;;;1.20;;
18702;SDS011;9481;48.796;9.210;2022-10-16T06:53:30;1.90;;;1.20;;
18702;SDS011;9481;48.796;9.210;2022-10-16T06:56:06;1.43;;;1.23;;
18702;SDS011;9481;48.796;9.210;2022-10-16T06:58:37;3.47;;;1.20;;
18702;SDS011;9481;48.796;9.210;2022-10-16T07:01:04;2.60;;;1.20;;
18702;SDS011;9481;48.796;9.210;2022-10-16T07:03:30;2.00;;;1.00;;
18702;SDS011;9481;48.796;9.210;2022-10-16T07:05:56;1.73;;;1.63;;
18702;SDS011;9481;48.796;9.210;2022-10-16T07:08:21;2.90;;;1.30;;
18702;SDS011;9481;48.796;9.210;2022-10-16T07:10:47;3.27;;;1.10;;
18702;SDS011;9481;48.796;9.210;2022-10-16T07:13:13;2.37;;;1.60;;
18702;SDS011;9481;48.796;9.210;2022-10-16T07:15:39;4.47;;;1.20;;
18702;SDS011;9481;48.796;9.210;2022-10-16T07:18:06;3.17;;;1.20;;
18702;SDS011;9481;48.796;9.210;2022-10-16T07:20:32;2.20;;;1.30;;
18702;SDS011;9481;48.796;9.210;2022-10-16T07:22:58;5.40;;;1.73;;
18702;SDS011;9481;48.796;9.210;2022-10-16T07:25:23;1.43;;;1.27;;
18702;SDS011;9481;48.796;9.210;2022-10-16T07:27:49;3.53;;;1.20;;
18702;SDS011;9481;48.796;9.210;2022-10-16T07:30:15;4.23;;;1.57;;
18702;SDS011;9481;48.796;9.210;2022-10-16T07:32:41;2.37;;;1.30;;
18702;SDS011;9481;48.796;9.210;2022-10-16T07:35:07;1.47;;;1.37;;
18702;SDS011;9481;48.796;9.210;2022-10-16T07:37:33;4.10;;;1.50;;
18702;SDS011;9481;48.796;9.210;2022-10-16T07:39:58;2.83;;;1.53;;
18702;SDS011;9481;48.796;9.210;2022-10-16T07:42:24;1.80;;;1.70;;
18702;SDS011;9481;48.796;9.210;2022-10-16T07:44:49;3.53;;;1.50;;
18702;SDS011;9481;48.796;9.210;2022-10-16T07:47:15;1.70;;;1.50;;
18702;SDS011;9481;48.796;9.210;2022-10-16T07:49:41;4.27;;;1.70;;
18702;SDS011;9481;48.796;9.210;2022-10-16T07:52:06;2.00;;;1.50;;
18702;SDS011;9481;48.796;9.210;2022-10-16T07:54:32;2.60;;;1.20;;
18702;SDS011;9481;48.796;9.210;2022-10-16T07:56:58;2.77;;;1.27;;
18702;SDS011;9481;48.796;9.210;2022-10-16T07:59:23;3.40;;;1.40;;
18702;SDS011;9481;48.796;9.210;2022-10-16T08:01:49;2.20;;;1.20;;
18702;SDS011;9481;48.796;9.210;2022-10-16T08:04:15;2.80;;;1.20;;
18702;SDS011;9481;48.796;9.210;2022-10-16T08:06:41;1.10;;;1.00;;
18702;SDS011;9481;48.796;9.210;2022-10-16T08:09:07;1.57;;;1.23;;
18702;SDS011;9481;48.796;9.210;2022-10-16T08:11:33;2.20;;;1.50;;
18702;SDS011;9481;48.796;9.210;2022-10-16T08:13:59;1.20;;;1.10;;
18702;SDS011;9481;48.796;9.210;2022-10-16T08:16:25;2.50;;;1.20;;
18702;SDS011;9481;48.796;9.210;2022-10-16T08:18:50;3.57;;;1.13;;
18702;SDS011;9481;48.796;9.210;2022-10-16T08:21:17;1.23;;;1.10;;
18702;SDS011;9481;48.796;9.210;2022-10-16T08:23:46;3.20;;;1.20;;
18702;SDS011;9481;48.796;9.210;2022-10-16T08:26:12;1.93;;;1.20;;
18702;SDS011;9481;48.796;9.210;2022-10-16T08:28:38;2.10;;;1.40;;
18702;SDS011;9481;48.796;9.210;2022-10-16T08:31:08;2.23;;;1.00;;
18702;SDS011;9481;48.796;9.210;2022-10-16T08:33:37;2.20;;;1.50;;
18702;SDS011;9481;48.796;9.210;2022-10-16T08:36:04;3.30;;;1.40;;
18702;SDS011;9481;48.796;9.210;2022-10-16T08:38:31;1.30;;;1.10;;
18702;SDS011;9481;48.796;9.210;2022-10-16T08:41:08;1.60;;;0.90;;
18702;SDS011;9481;48.796;9.210;2022-10-16T08:46:34;3.43;;;1.30;;
18702;SDS011;9481;48.796;9.210;2022-10-16T08:49:11;2.50;;;1.00;;
18702;SDS011;9481;48.796;9.210;2022-10-16T08:51:40;3.57;;;1.20;;
18702;SDS011;9481;48.796;9.210;2022-10-16T08:56:56;1.43;;;1.30;;
18702;SDS011;9481;48.796;9.210;2022-10-16T08:59:32;2.10;;;1.17;;
18702;SDS011;9481;48.796;9.210;2022-10-16T09:01:57;2.53;;;1.50;;
18702;SDS011;9481;48.796;9.210;2022-10-16T09:10:13;3.70;;;1.37;;
18702;SDS011;9481;48.796;9.210;2022-10-16T09:13:23;1.50;;;1.20;;
18702;SDS011;9481;48.796;9.210;2022-10-16T09:16:10;1.23;;;1.00;;
18702;SDS011;9481;48.796;9.210;2022-10-16T09:19:09;1.10;;;1.00;;
18702;SDS011;9481;48.796;9.210;2022-10-16T09:21:45;1.97;;;0.80;;
18702;SDS011;9481;48.796;9.210;2022-10-16T09:26:41;2.23;;;1.00;;
18702;SDS011;9481;48.796;9.210;2022-10-16T09:29:14;0.77;;;0.77;;
18702;SDS011;9481;48.796;9.210;2022-10-16T09:31:46;4.63;;;1.13;;
18702;SDS011;9481;48.796;9.210;2022-10-16T09:36:54;1.33;;;1.00;;
18702;SDS011;9481;48.796;9.210;2022-10-16T09:39:23;2.87;;;1.00;;
18702;SDS011;9481;48.796;9.210;2022-10-16T09:41:49;1.10;;;1.00;;
18702;SDS011;9481;48.796;9.210;2022-10-16T09:50:19;1.50;;;1.00;;
18702;SDS011;9481;48.796;9.210;2022-10-16T09:53:05;1.67;;;1.03;;
18702;SDS011;9481;48.796;9.210;2022-10-16T09:55:47;1.10;;;0.93;;
18702;SDS011;9481;48.796;9.210;2022-10-16T09:58:21;1.97;;;1.13;;
18702;SDS011;9481;48.796;9.210;2022-10-16T10:00:51;1.77;;;1.30;;
18702;SDS011;9481;48.796;9.210;2022-10-16T10:03:36;3.80;;;1.00;;
18702;SDS011;9481;48.796;9.210;2022-10-16T10:06:28;0.93;;;0.90;;
18702;SDS011;9481;48.796;9.210;2022-10-16T10:09:06;1.53;;;1.00;;
18702;SDS011;9481;48.796;9.210;2022-10-16T10:11:45;2.30;;;1.20;;
18702;SDS011;9481;48.796;9.210;2022-10-16T10:14:33;2.40;;;1.27;;
18702;SDS011;9481;48.796;9.210;2022-10-16T10:22:58;2.07;;;1.23;;
18702;SDS011;9481;48.796;9.210;2022-10-16T10:30:24;1.87;;;1.00;;
18702;SDS011;9481;48.796;9.210;2022-10-16T10:33:25;1.10;;;0.90;;
18702;SDS011;9481;48.796;9.210;2022-10-16T10:36:12;2.30;;;1.00;;
18702;SDS011;9481;48.796;9.210;2022-10-16T10:42:39;1.83;;;0.90;;
18702;SDS011;9481;48.796;9.210;2022-10-16T10:51:51;1.50;;;0.90;;
18702;SDS011;9481;48.796;9.210;2022-10-16T11:06:05;1.10;;;1.00;;
18702;SDS011;9481;48.796;9.210;2022-10-16T11:11:40;1.30;;;1.03;;
18702;SDS011;9481;48.796;9.210;2022-10-16T11:17:31;1.10;;;0.87;;
18702;SDS011;9481;48.796;9.210;2022-10-16T11:20:16;1.47;;;1.17;;
18702;SDS011;9481;48.796;9.210;2022-10-16T11:25:36;2.13;;;0.90;;
18702;SDS011;9481;48.796;9.210;2022-10-16T11:28:20;1.30;;;1.10;;
18702;SDS011;9481;48.796;9.210;2022-10-16T11:30:59;2.67;;;1.00;;
18702;SDS011;9481;48.796;9.210;2022-10-16T11:36:47;0.97;;;0.97;;
18702;SDS011;9481;48.796;9.210;2022-10-16T11:39:32;4.60;;;1.10;;
18702;SDS011;9481;48.796;9.210;2022-10-16T11:42:07;2.43;;;1.10;;
18702;SDS011;9481;48.796;9.210;2022-10-16T11:44:53;1.40;;;1.17;;
18702;SDS011;9481;48.796;9.210;2022-10-16T11:47:43;1.53;;;0.93;;
18702;SDS011;9481;48.796;9.210;2022-10-16T11:50:28;4.77;;;1.10;;
18702;SDS011;9481;48.796;9.210;2022-10-16T11:56:17;1.00;;;0.90;;
18702;SDS011;9481;48.796;9.210;2022-10-16T12:01:48;1.03;;;0.90;;
18702;SDS011;9481;48.796;9.210;2022-10-16T12:08:10;1.53;;;1.00;;
18702;SDS011;9481;48.796;9.210;2022-10-16T12:10:42;1.93;;;0.90;;
18702;SDS011;9481;48.796;9.210;2022-10-16T12:18:45;1.53;;;1.03;;
18702;SDS011;9481;48.796;9.210;2022-10-16T12:21:13;0.70;;;0.70;;
18702;SDS011;9481;48.796;9.210;2022-10-16T12:23:48;1.47;;;1.00;;
18702;SDS011;9481;48.796;9.210;2022-10-16T12:26:24;1.23;;;0.93;;
18702;SDS011;9481;48.796;9.210;2022-10-16T12:28:52;0.85;;;0.85;;
18702;SDS011;9481;48.796;9.210;2022-10-16T12:31:20;1.73;;;0.80;;
18702;SDS011;9481;48.796;9.210;2022-10-16T12:33:59;1.40;;;0.90;;
18702;SDS011;9481;48.796;9.210;2022-10-16T12:36:32;1.15;;;1.00;;
18702;SDS011;9481;48.796;9.210;2022-10-16T12:38:59;1.15;;;0.90;;
18702;SDS011;9481;48.796;9.210;2022-10-16T12:41:28;1.63;;;1.10;;
18702;SDS011;9481;48.796;9.210;2022-10-16T12:43:57;1.00;;;0.90;;
18702;SDS011;9481;48.796;9.210;2022-10-16T12:49:47;4.30;;;1.00;;
18702;SDS011;9481;48.796;9.210;2022-10-16T12:51:54;7.63;;;1.30;;
18702;SDS011;9481;48.796;9.210;2022-10-16T12:54:31;1.23;;;1.00;;
18702;SDS011;9481;48.796;9.210;2022-10-16T13:00:26;3.63;;;0.82;;
18702;SDS011;9481;48.796;9.210;2022-10-16T13:06:12;1.30;;;1.20;;
18702;SDS011;9481;48.796;9.210;2022-10-16T13:08:57;3.33;;;1.10;;
18702;SDS011;9481;48.796;9.210;2022-10-16T13:20:23;1.23;;;1.07;;
18702;SDS011;9481;48.796;9.210;2022-10-16T13:23:27;2.50;;;1.40;;
18702;SDS011;9481;48.796;9.210;2022-10-16T13:29:01;1.70;;;1.20;;
18702;SDS011;9481;48.796;9.210;2022-10-16T13:31:28;2.07;;;1.20;;
18702;SDS011;9481;48.796;9.210;2022-10-16T13:33:56;3.63;;;1.10;;
18702;SDS011;9481;48.796;9.210;2022-10-16T13:36:26;1.27;;;1.00;;
18702;SDS011;9481;48.796;9.210;2022-10-16T13:39:14;1.03;;;1.00;;
18702;SDS011;9481;48.796;9.210;2022-10-16T13:44:51;1.00;;;0.90;;
18702;SDS011;9481;48.796;9.210;2022-10-16T13:47:23;2.47;;;1.07;;
18702;SDS011;9481;48.796;9.210;2022-10-16T13:50:09;1.13;;;1.10;;
18702;SDS011;9481;48.796;9.210;2022-10-16T13:52:38;2.10;;;1.43;;
18702;SDS011;9481;48.796;9.210;2022-10-16T13:55:14;1.10;;;1.10;;
18702;SDS011;9481;48.796;9.210;2022-10-16T13:57:43;1.30;;;1.20;;
18702;SDS011;9481;48.796;9.210;2022-10-16T14:00:22;3.87;;;1.50;;
18702;SDS011;9481;48.796;9.210;2022-10-16T14:03:02;1.37;;;1.27;;
18702;SDS011;9481;48.796;9.210;2022-10-16T14:05:31;1.20;;;1.10;;
18702;SDS011;9481;48.796;9.210;2022-10-16T14:07:58;2.60;;;1.10;;
18702;SDS011;9481;48.796;9.210;2022-10-16T14:10:25;1.17;;;1.10;;
18702;SDS011;9481;48.796;9.210;2022-10-16T14:12:57;3.77;;;1.40;;
18702;SDS011;9481;48.796;9.210;2022-10-16T14:15:27;5.20;;;1.30;;
18702;SDS011;9481;48.796;9.210;2022-10-16T14:17:55;1.57;;;1.30;;
18702;SDS011;9481;48.796;9.210;2022-10-16T14:20:23;2.40;;;1.27;;
18702;SDS011;9481;48.796;9.210;2022-10-16T14:25:45;2.33;;;1.40;;
18702;SDS011;9481;48.796;9.210;2022-10-16T14:33:30;2.50;;;1.40;;
18702;SDS011;9481;48.796;9.210;2022-10-16T14:36:00;2.87;;;1.67;;
18702;SDS011;9481;48.796;9.210;2022-10-16T14:38:39;2.90;;;1.60;;
18702;SDS011;9481;48.796;9.210;2022-10-16T14:41:13;1.63;;;1.50;;
18702;SDS011;9481;48.796;9.210;2022-10-16T14:43:40;2.03;;;1.30;;
18702;SDS011;9481;48.796;9.210;2022-10-16T14:46:12;1.83;;;1.70;;
18702;SDS011;9481;48.796;9.210;2022-10-16T14:48:42;2.27;;;1.40;;
18702;SDS011;9481;48.796;9.210;2022-10-16T14:51:15;3.77;;;1.53;;
18702;SDS011;9481;48.796;9.210;2022-10-16T14:53:43;3.20;;;1.90;;
18702;SDS011;9481;48.796;9.210;2022-10-16T14:56:19;4.43;;;1.60;;
18702;SDS011;9481;48.796;9.210;2022-10-16T14:58:52;3.53;;;1.83;;
18702;SDS011;9481;48.796;9.210;2022-10-16T15:01:19;2.60;;;1.70;;
18702;SDS011;9481;48.796;9.210;2022-10-16T15:03:45;4.47;;;1.63;;
18702;SDS011;9481;48.796;9.210;2022-10-16T15:06:11;3.20;;;1.63;;
18702;SDS011;9481;48.796;9.210;2022-10-16T15:08:41;3.13;;;1.77;;
18702;SDS011;9481;48.796;9.210;2022-10-16T15:11:16;1.60;;;1.43;;
18702;SDS011;9481;48.796;9.210;2022-10-16T15:13:44;1.97;;;1.50;;
18702;SDS011;9481;48.796;9.210;2022-10-16T15:16:12;2.23;;;1.70;;
18702;SDS011;9481;48.796;9.210;2022-10-16T15:18:40;2.00;;;1.57;;
18702;SDS011;9481;48.796;9.210;2022-10-16T15:21:07;2.60;;;1.90;;
18702;SDS011;9481;48.796;9.210;2022-10-16T15:23:51;1.70;;;1.60;;
18702;SDS011;9481;48.796;9.210;2022-10-16T15:26:17;2.93;;;1.90;;
18702;SDS011;9481;48.796;9.210;2022-10-16T15:28:42;2.27;;;1.50;;
18702;SDS011;9481;48.796;9.210;2022-10-16T15:31:08;2.10;;;1.73;;
18702;SDS011;9481;48.796;9.210;2022-10-16T15:33:34;3.23;;;2.10;;
18702;SDS011;9481;48.796;9.210;2022-10-16T15:36:00;2.57;;;1.80;;
18702;SDS011;9481;48.796;9.210;2022-10-16T15:38:27;2.83;;;1.97;;
18702;SDS011;9481;48.796;9.210;2022-10-16T15:40:55;2.83;;;1.73;;
18702;SDS011;9481;48.796;9.210;2022-10-16T15:43:21;2.80;;;1.60;;
18702;SDS011;9481;48.796;9.210;2022-10-16T15:45:52;1.70;;;1.60;;
18702;SDS011;9481;48.796;9.210;2022-10-16T15:48:25;2.03;;;1.60;;
18702;SDS011;9481;48.796;9.210;2022-10-16T15:50:51;4.03;;;2.10;;
18702;SDS011;9481;48.796;9.210;2022-10-16T15:53:16;4.37;;;1.50;;
18702;SDS011;9481;48.796;9.210;2022-10-16T15:55:42;2.67;;;1.90;;
18702;SDS011;9481;48.796;9.210;2022-10-16T15:58:08;1.93;;;1.73;;
18702;SDS011;9481;48.796;9.210;2022-10-16T16:00:33;5.27;;;1.80;;
18702;SDS011;9481;48.796;9.210;2022-10-16T16:02:59;3.57;;;1.60;;
18702;SDS011;9481;48.796;9.210;2022-10-16T16:05:24;2.57;;;1.90;;
18702;SDS011;9481;48.796;9.210;2022-10-16T16:07:52;1.70;;;1.50;;
18702;SDS011;9481;48.796;9.210;2022-10-16T16:10:18;2.53;;;1.80;;
18702;SDS011;9481;48.796;9.210;2022-10-16T16:12:46;3.77;;;1.30;;
18702;SDS011;9481;48.796;9.210;2022-10-16T16:15:17;3.30;;;1.67;;
18702;SDS011;9481;48.796;9.210;2022-10-16T16:17:47;2.07;;;1.60;;
18702;SDS011;9481;48.796;9.210;2022-10-16T16:20:14;2.53;;;1.50;;
18702;SDS011;9481;48.796;9.210;2022-10-16T16:22:40;4.23;;;1.50;;
18702;SDS011;9481;48.796;9.210;2022-10-16T16:25:06;2.77;;;1.67;;
18702;SDS011;9481;48.796;9.210;2022-10-16T16:27:32;1.57;;;1.30;;
18702;SDS011;9481;48.796;9.210;2022-10-16T16:29:59;2.13;;;1.43;;
18702;SDS011;9481;48.796;9.210;2022-10-16T16:32:28;2.80;;;1.50;;
18702;SDS011;9481;48.796;9.210;2022-10-16T16:34:54;3.13;;;1.80;;
18702;SDS011;9481;48.796;9.210;2022-10-16T16:37:19;3.43;;;1.60;;
18702;SDS011;9481;48.796;9.210;2022-10-16T16:39:45;3.33;;;1.87;;
18702;SDS011;9481;48.796;9.210;2022-10-16T16:42:11;3.50;;;1.67;;
18702;SDS011;9481;48.796;9.210;2022-10-16T16:44:36;3.23;;;2.30;;
18702;SDS011;9481;48.796;9.210;2022-10-16T16:47:03;2.60;;;1.90;;
18702;SDS011;9481;48.796;9.210;2022-10-16T16:49:30;2.40;;;1.83;;
18702;SDS011;9481;48.796;9.210;2022-10-16T16:51:56;2.50;;;1.83;;
18702;SDS011;9481;48.796;9.210;2022-10-16T16:54:22;3.30;;;2.40;;
18702;SDS011;9481;48.796;9.210;2022-10-16T16:56:48;5.23;;;1.90;;
18702;SDS011;9481;48.796;9.210;2022-10-16T16:59:14;2.53;;;1.80;;
18702;SDS011;9481;48.796;9.210;2022-10-16T17:01:44;3.90;;;1.93;;
18702;SDS011;9481;48.796;9.210;2022-10-16T17:04:11;4.07;;;2.00;;
18702;SDS011;9481;48.796;9.210;2022-10-16T17:06:38;3.10;;;1.90;;
18702;SDS011;9481;48.796;9.210;2022-10-16T17:09:05;2.30;;;2.00;;
18702;SDS011;9481;48.796;9.210;2022-10-16T17:11:32;4.33;;;2.37;;
18702;SDS011;9481;48.796;9.210;2022-10-16T17:13:59;3.70;;;2.27;;
18702;SDS011;9481;48.796;9.210;2022-10-16T17:16:27;2.43;;;1.90;;
18702;SDS011;9481;48.796;9.210;2022-10-16T17:19:01;2.37;;;2.00;;
18702;SDS011;9481;48.796;9.210;2022-10-16T17:21:32;2.90;;;1.80;;
18702;SDS011;9481;48.796;9.210;2022-10-16T17:23:59;4.03;;;2.00;;
18702;SDS011;9481;48.796;9.210;2022-10-16T17:26:25;3.00;;;2.20;;
18702;SDS011;9481;48.796;9.210;2022-10-16T17:28:52;3.30;;;1.80;;
18702;SDS011;9481;48.796;9.210;2022-10-16T17:31:22;2.90;;;1.90;;
18702;SDS011;9481;48.796;9.210;2022-10-16T17:33:54;2.87;;;1.90;;